sensor_id;sensor_type;location;lat;lon;timestamp;temperature;humidity
14771;DHT22;7477;45.222;5.688;2023-03-23T00:02:10;14.30;96.30
14771;DHT22;7477;45.222;5.688;2023-03-23T00:05:29;14.20;96.40
14771;DHT22;7477;45.222;5.688;2023-03-23T00:08:50;14.20;96.50
14771;DHT22;7477;45.222;5.688;2023-03-23T00:12:12;14.10;96.70
14771;DHT22;7477;45.222;5.688;2023-03-23T00:15:34;14.10;96.80
14771;DHT22;7477;45.222;5.688;2023-03-23T00:18:55;14.10;96.90
14771;DHT22;7477;45.222;5.688;2023-03-23T00:22:17;14.00;96.90
14771;DHT22;7477;45.222;5.688;2023-03-23T00:25:38;14.00;97.00
14771;DHT22;7477;45.222;5.688;2023-03-23T00:28:57;14.00;97.20
14771;DHT22;7477;45.222;5.688;2023-03-23T00:32:21;14.00;97.30
14771;DHT22;7477;45.222;5.688;2023-03-23T00:35:46;14.00;97.40
14771;DHT22;7477;45.222;5.688;2023-03-23T00:39:05;14.00;97.60
14771;DHT22;7477;45.222;5.688;2023-03-23T00:42:24;14.00;97.70
14771;DHT22;7477;45.222;5.688;2023-03-23T00:45:44;13.90;97.80
14771;DHT22;7477;45.222;5.688;2023-03-23T00:49:13;13.90;97.90
14771;DHT22;7477;45.222;5.688;2023-03-23T00:52:33;13.90;98.00
14771;DHT22;7477;45.222;5.688;2023-03-23T00:55:52;14.00;98.10
14771;DHT22;7477;45.222;5.688;2023-03-23T00:59:11;13.90;98.20
14771;DHT22;7477;45.222;5.688;2023-03-23T01:02:30;13.90;98.40
14771;DHT22;7477;45.222;5.688;2023-03-23T01:05:50;13.90;98.50
14771;DHT22;7477;45.222;5.688;2023-03-23T01:09:13;13.90;98.50
14771;DHT22;7477;45.222;5.688;2023-03-23T01:12:35;13.80;98.70
14771;DHT22;7477;45.222;5.688;2023-03-23T01:15:54;13.70;98.80
14771;DHT22;7477;45.222;5.688;2023-03-23T01:19:13;13.80;98.90
14771;DHT22;7477;45.222;5.688;2023-03-23T01:22:34;13.70;98.90
14771;DHT22;7477;45.222;5.688;2023-03-23T01:25:53;13.80;99.00
14771;DHT22;7477;45.222;5.688;2023-03-23T01:29:17;13.80;99.20
14771;DHT22;7477;45.222;5.688;2023-03-23T01:32:36;13.70;99.40
14771;DHT22;7477;45.222;5.688;2023-03-23T01:35:55;13.60;99.40
14771;DHT22;7477;45.222;5.688;2023-03-23T01:39:15;13.50;99.40
14771;DHT22;7477;45.222;5.688;2023-03-23T01:42:36;13.60;99.50
14771;DHT22;7477;45.222;5.688;2023-03-23T01:45:56;13.60;99.40
14771;DHT22;7477;45.222;5.688;2023-03-23T01:49:19;13.60;99.40
14771;DHT22;7477;45.222;5.688;2023-03-23T01:52:40;13.60;99.50
14771;DHT22;7477;45.222;5.688;2023-03-23T01:56:01;13.60;99.60
14771;DHT22;7477;45.222;5.688;2023-03-23T01:59:20;13.60;99.70
14771;DHT22;7477;45.222;5.688;2023-03-23T02:02:42;13.60;99.70
14771;DHT22;7477;45.222;5.688;2023-03-23T02:06:02;13.60;99.90
14771;DHT22;7477;45.222;5.688;2023-03-23T02:09:21;13.60;99.90
14771;DHT22;7477;45.222;5.688;2023-03-23T02:12:41;13.50;99.90
14771;DHT22;7477;45.222;5.688;2023-03-23T02:27:02;13.50;99.90
14771;DHT22;7477;45.222;5.688;2023-03-23T02:30:55;13.40;99.90
14771;DHT22;7477;45.222;5.688;2023-03-23T02:34:29;13.40;99.90
14771;DHT22;7477;45.222;5.688;2023-03-23T02:37:52;13.40;99.90
14771;DHT22;7477;45.222;5.688;2023-03-23T02:41:17;13.40;99.90
14771;DHT22;7477;45.222;5.688;2023-03-23T02:44:41;13.40;99.90
14771;DHT22;7477;45.222;5.688;2023-03-23T02:48:02;13.30;99.90
14771;DHT22;7477;45.222;5.688;2023-03-23T02:51:24;13.20;99.90
14771;DHT22;7477;45.222;5.688;2023-03-23T02:54:47;13.30;99.90
14771;DHT22;7477;45.222;5.688;2023-03-23T02:58:11;13.40;99.90
14771;DHT22;7477;45.222;5.688;2023-03-23T03:09:20;13.20;99.90
14771;DHT22;7477;45.222;5.688;2023-03-23T03:12:47;13.20;99.90
14771;DHT22;7477;45.222;5.688;2023-03-23T03:16:29;13.20;99.90
14771;DHT22;7477;45.222;5.688;2023-03-23T03:19:54;13.20;99.90
14771;DHT22;7477;45.222;5.688;2023-03-23T03:23:17;13.20;99.90
14771;DHT22;7477;45.222;5.688;2023-03-23T03:26:40;13.20;99.90
14771;DHT22;7477;45.222;5.688;2023-03-23T03:30:01;13.20;99.90
14771;DHT22;7477;45.222;5.688;2023-03-23T03:33:23;13.10;99.90
14771;DHT22;7477;45.222;5.688;2023-03-23T03:36:47;13.10;99.90
14771;DHT22;7477;45.222;5.688;2023-03-23T03:40:11;13.20;99.90
14771;DHT22;7477;45.222;5.688;2023-03-23T03:43:30;13.10;99.90
14771;DHT22;7477;45.222;5.688;2023-03-23T03:46:50;13.10;99.90
14771;DHT22;7477;45.222;5.688;2023-03-23T03:50:09;13.10;99.90
14771;DHT22;7477;45.222;5.688;2023-03-23T03:53:29;13.10;99.90
14771;DHT22;7477;45.222;5.688;2023-03-23T03:56:49;13.10;99.90
14771;DHT22;7477;45.222;5.688;2023-03-23T04:00:11;13.10;99.90
14771;DHT22;7477;45.222;5.688;2023-03-23T04:03:34;13.10;99.90
14771;DHT22;7477;45.222;5.688;2023-03-23T04:06:53;13.10;99.90
14771;DHT22;7477;45.222;5.688;2023-03-23T04:10:12;13.10;99.90
14771;DHT22;7477;45.222;5.688;2023-03-23T04:13:32;13.10;99.90
14771;DHT22;7477;45.222;5.688;2023-03-23T04:16:51;13.00;99.90
14771;DHT22;7477;45.222;5.688;2023-03-23T04:20:16;13.00;99.90
14771;DHT22;7477;45.222;5.688;2023-03-23T04:23:36;13.00;99.90
14771;DHT22;7477;45.222;5.688;2023-03-23T04:26:56;13.00;99.90
14771;DHT22;7477;45.222;5.688;2023-03-23T04:30:15;13.00;99.90
14771;DHT22;7477;45.222;5.688;2023-03-23T04:33:34;12.90;99.90
14771;DHT22;7477;45.222;5.688;2023-03-23T04:36:56;12.90;99.90
14771;DHT22;7477;45.222;5.688;2023-03-23T04:40:16;12.90;99.90
14771;DHT22;7477;45.222;5.688;2023-03-23T04:43:36;12.90;99.90
14771;DHT22;7477;45.222;5.688;2023-03-23T04:47:03;12.90;99.90
14771;DHT22;7477;45.222;5.688;2023-03-23T04:50:22;12.90;99.90
14771;DHT22;7477;45.222;5.688;2023-03-23T04:53:42;12.90;99.90
14771;DHT22;7477;45.222;5.688;2023-03-23T04:57:02;12.80;99.90
14771;DHT22;7477;45.222;5.688;2023-03-23T05:00:22;12.90;99.90
14771;DHT22;7477;45.222;5.688;2023-03-23T05:03:41;12.80;99.90
14771;DHT22;7477;45.222;5.688;2023-03-23T05:07:00;12.80;99.90
14771;DHT22;7477;45.222;5.688;2023-03-23T05:10:21;12.80;99.90
14771;DHT22;7477;45.222;5.688;2023-03-23T05:13:40;12.80;99.90
14771;DHT22;7477;45.222;5.688;2023-03-23T05:16:59;12.80;99.90
14771;DHT22;7477;45.222;5.688;2023-03-23T05:20:19;12.80;99.90
14771;DHT22;7477;45.222;5.688;2023-03-23T05:23:39;12.80;99.90
14771;DHT22;7477;45.222;5.688;2023-03-23T05:26:59;12.80;99.90
14771;DHT22;7477;45.222;5.688;2023-03-23T05:30:20;12.80;99.90
14771;DHT22;7477;45.222;5.688;2023-03-23T05:33:40;12.80;99.90
14771;DHT22;7477;45.222;5.688;2023-03-23T05:37:00;12.70;99.90
14771;DHT22;7477;45.222;5.688;2023-03-23T05:40:20;12.70;99.90
14771;DHT22;7477;45.222;5.688;2023-03-23T05:43:39;12.70;99.90
14771;DHT22;7477;45.222;5.688;2023-03-23T05:46:59;12.80;99.90
14771;DHT22;7477;45.222;5.688;2023-03-23T05:50:18;12.80;99.90
14771;DHT22;7477;45.222;5.688;2023-03-23T05:53:38;12.80;99.90
14771;DHT22;7477;45.222;5.688;2023-03-23T05:56:57;12.80;99.90
14771;DHT22;7477;45.222;5.688;2023-03-23T06:00:16;12.80;99.80
14771;DHT22;7477;45.222;5.688;2023-03-23T06:03:39;12.70;99.60
14771;DHT22;7477;45.222;5.688;2023-03-23T06:07:02;12.80;99.70
14771;DHT22;7477;45.222;5.688;2023-03-23T06:10:22;12.80;99.60
14771;DHT22;7477;45.222;5.688;2023-03-23T06:13:42;12.70;99.60
14771;DHT22;7477;45.222;5.688;2023-03-23T06:17:02;12.80;99.90
14771;DHT22;7477;45.222;5.688;2023-03-23T06:20:22;12.70;99.80
14771;DHT22;7477;45.222;5.688;2023-03-23T06:23:44;12.70;99.80
14771;DHT22;7477;45.222;5.688;2023-03-23T06:27:03;12.70;99.90
14771;DHT22;7477;45.222;5.688;2023-03-23T06:30:22;12.70;99.90
14771;DHT22;7477;45.222;5.688;2023-03-23T06:33:42;12.70;99.90
14771;DHT22;7477;45.222;5.688;2023-03-23T06:37:01;12.70;99.90
14771;DHT22;7477;45.222;5.688;2023-03-23T06:40:21;12.80;99.90
14771;DHT22;7477;45.222;5.688;2023-03-23T06:43:41;12.80;99.90
14771;DHT22;7477;45.222;5.688;2023-03-23T06:47:00;12.80;99.90
14771;DHT22;7477;45.222;5.688;2023-03-23T06:50:21;12.90;99.90
14771;DHT22;7477;45.222;5.688;2023-03-23T06:53:40;12.90;99.90
14771;DHT22;7477;45.222;5.688;2023-03-23T06:57:00;13.00;99.90
14771;DHT22;7477;45.222;5.688;2023-03-23T07:00:20;13.00;99.70
14771;DHT22;7477;45.222;5.688;2023-03-23T07:03:39;13.00;99.70
14771;DHT22;7477;45.222;5.688;2023-03-23T07:06:59;13.10;99.60
14771;DHT22;7477;45.222;5.688;2023-03-23T07:10:19;13.10;99.80
14771;DHT22;7477;45.222;5.688;2023-03-23T07:13:39;13.20;99.90
14771;DHT22;7477;45.222;5.688;2023-03-23T07:16:58;13.20;99.50
14771;DHT22;7477;45.222;5.688;2023-03-23T07:20:17;13.10;98.90
14771;DHT22;7477;45.222;5.688;2023-03-23T07:23:36;13.10;98.70
14771;DHT22;7477;45.222;5.688;2023-03-23T07:26:56;13.10;98.40
14771;DHT22;7477;45.222;5.688;2023-03-23T07:30:16;13.10;98.30
14771;DHT22;7477;45.222;5.688;2023-03-23T07:33:35;13.20;98.60
14771;DHT22;7477;45.222;5.688;2023-03-23T07:36:54;13.20;98.40
14771;DHT22;7477;45.222;5.688;2023-03-23T07:40:15;13.30;98.60
14771;DHT22;7477;45.222;5.688;2023-03-23T07:43:35;13.30;98.30
14771;DHT22;7477;45.222;5.688;2023-03-23T07:46:54;13.30;98.10
14771;DHT22;7477;45.222;5.688;2023-03-23T07:50:13;13.30;98.00
14771;DHT22;7477;45.222;5.688;2023-03-23T07:53:34;13.30;97.80
14771;DHT22;7477;45.222;5.688;2023-03-23T07:56:53;13.30;97.70
14771;DHT22;7477;45.222;5.688;2023-03-23T08:00:13;13.30;97.50
14771;DHT22;7477;45.222;5.688;2023-03-23T08:03:38;13.30;97.30
14771;DHT22;7477;45.222;5.688;2023-03-23T08:06:57;13.20;97.40
14771;DHT22;7477;45.222;5.688;2023-03-23T08:10:17;13.20;97.40
14771;DHT22;7477;45.222;5.688;2023-03-23T08:13:36;13.20;97.40
14771;DHT22;7477;45.222;5.688;2023-03-23T08:16:55;13.20;97.70
14771;DHT22;7477;45.222;5.688;2023-03-23T08:20:15;13.10;97.90
14771;DHT22;7477;45.222;5.688;2023-03-23T08:23:36;13.20;98.20
14771;DHT22;7477;45.222;5.688;2023-03-23T08:26:55;13.20;98.50
14771;DHT22;7477;45.222;5.688;2023-03-23T08:30:18;13.20;98.40
14771;DHT22;7477;45.222;5.688;2023-03-23T08:33:39;13.30;98.50
14771;DHT22;7477;45.222;5.688;2023-03-23T08:36:58;13.40;98.90
14771;DHT22;7477;45.222;5.688;2023-03-23T08:40:19;13.50;98.90
14771;DHT22;7477;45.222;5.688;2023-03-23T08:43:39;13.50;99.00
14771;DHT22;7477;45.222;5.688;2023-03-23T08:46:58;13.50;99.30
14771;DHT22;7477;45.222;5.688;2023-03-23T08:50:22;13.50;99.50
14771;DHT22;7477;45.222;5.688;2023-03-23T08:53:42;13.50;99.80
14771;DHT22;7477;45.222;5.688;2023-03-23T08:57:02;13.50;99.90
14771;DHT22;7477;45.222;5.688;2023-03-23T09:00:22;13.50;99.90
14771;DHT22;7477;45.222;5.688;2023-03-23T09:03:44;13.40;99.90
14771;DHT22;7477;45.222;5.688;2023-03-23T09:07:03;13.40;99.90
14771;DHT22;7477;45.222;5.688;2023-03-23T09:10:23;13.40;99.90
14771;DHT22;7477;45.222;5.688;2023-03-23T09:13:43;13.30;99.90
14771;DHT22;7477;45.222;5.688;2023-03-23T09:17:03;13.30;99.90
14771;DHT22;7477;45.222;5.688;2023-03-23T09:20:24;13.20;99.90
14771;DHT22;7477;45.222;5.688;2023-03-23T09:23:44;13.20;99.90
14771;DHT22;7477;45.222;5.688;2023-03-23T09:27:04;13.30;99.90
14771;DHT22;7477;45.222;5.688;2023-03-23T09:30:28;13.40;99.90
14771;DHT22;7477;45.222;5.688;2023-03-23T09:33:48;13.50;99.90
14771;DHT22;7477;45.222;5.688;2023-03-23T09:37:11;13.70;99.90
14771;DHT22;7477;45.222;5.688;2023-03-23T09:44:36;13.90;99.90
14771;DHT22;7477;45.222;5.688;2023-03-23T09:51:55;14.00;99.90
14771;DHT22;7477;45.222;5.688;2023-03-23T09:55:18;14.00;99.90
14771;DHT22;7477;45.222;5.688;2023-03-23T10:06:23;13.90;99.90
14771;DHT22;7477;45.222;5.688;2023-03-23T10:09:45;13.90;99.90
14771;DHT22;7477;45.222;5.688;2023-03-23T10:13:24;13.90;99.90
14771;DHT22;7477;45.222;5.688;2023-03-23T10:17:10;14.00;99.90
14771;DHT22;7477;45.222;5.688;2023-03-23T10:20:35;14.00;99.90
14771;DHT22;7477;45.222;5.688;2023-03-23T10:24:00;14.10;99.90
14771;DHT22;7477;45.222;5.688;2023-03-23T10:27:26;14.20;99.90
14771;DHT22;7477;45.222;5.688;2023-03-23T10:31:11;14.20;99.90
14771;DHT22;7477;45.222;5.688;2023-03-23T10:34:46;14.20;99.90
14771;DHT22;7477;45.222;5.688;2023-03-23T10:38:27;14.30;99.90
14771;DHT22;7477;45.222;5.688;2023-03-23T10:41:49;14.30;99.90
14771;DHT22;7477;45.222;5.688;2023-03-23T10:45:24;14.40;99.90
14771;DHT22;7477;45.222;5.688;2023-03-23T10:48:45;14.60;99.90
14771;DHT22;7477;45.222;5.688;2023-03-23T10:52:32;14.60;99.90
14771;DHT22;7477;45.222;5.688;2023-03-23T10:55:52;14.80;99.90
14771;DHT22;7477;45.222;5.688;2023-03-23T10:59:18;14.90;99.90
14771;DHT22;7477;45.222;5.688;2023-03-23T11:02:43;14.90;99.90
14771;DHT22;7477;45.222;5.688;2023-03-23T11:06:06;15.00;99.90
14771;DHT22;7477;45.222;5.688;2023-03-23T11:09:50;15.10;99.90
14771;DHT22;7477;45.222;5.688;2023-03-23T11:13:16;15.10;99.90
14771;DHT22;7477;45.222;5.688;2023-03-23T11:16:44;15.20;99.90
14771;DHT22;7477;45.222;5.688;2023-03-23T11:20:11;15.20;99.90
14771;DHT22;7477;45.222;5.688;2023-03-23T11:23:37;15.20;99.90
14771;DHT22;7477;45.222;5.688;2023-03-23T11:26:57;15.30;99.90
14771;DHT22;7477;45.222;5.688;2023-03-23T11:30:26;15.30;99.90
14771;DHT22;7477;45.222;5.688;2023-03-23T11:33:59;15.30;99.90
14771;DHT22;7477;45.222;5.688;2023-03-23T11:37:45;15.50;99.90
14771;DHT22;7477;45.222;5.688;2023-03-23T11:41:12;15.50;99.90
14771;DHT22;7477;45.222;5.688;2023-03-23T11:44:34;15.60;99.90
14771;DHT22;7477;45.222;5.688;2023-03-23T11:52:05;15.60;99.90
14771;DHT22;7477;45.222;5.688;2023-03-23T11:55:37;15.80;99.90
14771;DHT22;7477;45.222;5.688;2023-03-23T11:58:58;15.70;99.90
14771;DHT22;7477;45.222;5.688;2023-03-23T12:02:45;15.70;99.90
14771;DHT22;7477;45.222;5.688;2023-03-23T12:06:10;15.60;99.90
14771;DHT22;7477;45.222;5.688;2023-03-23T12:09:44;15.60;99.90
14771;DHT22;7477;45.222;5.688;2023-03-23T12:13:16;15.50;99.90
14771;DHT22;7477;45.222;5.688;2023-03-23T12:20:52;15.40;99.90
14771;DHT22;7477;45.222;5.688;2023-03-23T12:27:48;15.40;99.90
14771;DHT22;7477;45.222;5.688;2023-03-23T12:49:49;15.30;99.90
14771;DHT22;7477;45.222;5.688;2023-03-23T12:53:24;15.30;99.90
14771;DHT22;7477;45.222;5.688;2023-03-23T12:57:00;15.40;99.90
14771;DHT22;7477;45.222;5.688;2023-03-23T13:00:25;15.40;99.90
14771;DHT22;7477;45.222;5.688;2023-03-23T13:07:31;15.30;99.90
14771;DHT22;7477;45.222;5.688;2023-03-23T13:10:57;15.30;99.90
14771;DHT22;7477;45.222;5.688;2023-03-23T13:14:50;15.20;99.90
14771;DHT22;7477;45.222;5.688;2023-03-23T13:18:19;15.10;99.90
14771;DHT22;7477;45.222;5.688;2023-03-23T13:22:09;15.00;99.90
14771;DHT22;7477;45.222;5.688;2023-03-23T13:32:17;15.00;99.90
14771;DHT22;7477;45.222;5.688;2023-03-23T13:35:39;15.10;99.90
14771;DHT22;7477;45.222;5.688;2023-03-23T13:39:02;15.20;99.90
14771;DHT22;7477;45.222;5.688;2023-03-23T13:42:25;15.10;99.90
14771;DHT22;7477;45.222;5.688;2023-03-23T13:45:47;15.10;99.90
14771;DHT22;7477;45.222;5.688;2023-03-23T13:49:19;15.10;99.90
14771;DHT22;7477;45.222;5.688;2023-03-23T13:52:52;15.20;99.90
14771;DHT22;7477;45.222;5.688;2023-03-23T13:59:54;15.20;99.90
14771;DHT22;7477;45.222;5.688;2023-03-23T14:03:36;15.20;99.90
14771;DHT22;7477;45.222;5.688;2023-03-23T14:06:57;15.10;99.90
14771;DHT22;7477;45.222;5.688;2023-03-23T14:10:39;15.10;99.90
14771;DHT22;7477;45.222;5.688;2023-03-23T14:17:29;15.10;99.90
14771;DHT22;7477;45.222;5.688;2023-03-23T14:20:49;15.10;99.90
14771;DHT22;7477;45.222;5.688;2023-03-23T14:24:19;15.10;99.90
14771;DHT22;7477;45.222;5.688;2023-03-23T14:27:43;15.00;99.90
14771;DHT22;7477;45.222;5.688;2023-03-23T14:31:02;15.10;99.90
14771;DHT22;7477;45.222;5.688;2023-03-23T14:34:25;15.10;99.90
14771;DHT22;7477;45.222;5.688;2023-03-23T14:37:45;15.10;99.90
14771;DHT22;7477;45.222;5.688;2023-03-23T14:41:06;15.10;99.90
14771;DHT22;7477;45.222;5.688;2023-03-23T14:44:29;15.10;99.90
14771;DHT22;7477;45.222;5.688;2023-03-23T14:47:57;15.20;99.90
14771;DHT22;7477;45.222;5.688;2023-03-23T14:51:19;15.20;99.90
14771;DHT22;7477;45.222;5.688;2023-03-23T14:54:39;15.20;99.90
14771;DHT22;7477;45.222;5.688;2023-03-23T14:58:08;15.30;99.90
14771;DHT22;7477;45.222;5.688;2023-03-23T15:01:30;15.30;99.90
14771;DHT22;7477;45.222;5.688;2023-03-23T15:04:55;15.30;99.90
14771;DHT22;7477;45.222;5.688;2023-03-23T15:08:27;15.30;99.90
14771;DHT22;7477;45.222;5.688;2023-03-23T15:12:00;15.30;99.90
14771;DHT22;7477;45.222;5.688;2023-03-23T15:15:32;15.40;99.90
14771;DHT22;7477;45.222;5.688;2023-03-23T15:22:25;15.40;99.90
14771;DHT22;7477;45.222;5.688;2023-03-23T15:25:51;15.30;99.90
14771;DHT22;7477;45.222;5.688;2023-03-23T15:29:15;15.30;99.90
14771;DHT22;7477;45.222;5.688;2023-03-23T15:32:39;15.30;99.90
14771;DHT22;7477;45.222;5.688;2023-03-23T15:35:59;15.30;99.90
14771;DHT22;7477;45.222;5.688;2023-03-23T15:39:18;15.30;99.90
14771;DHT22;7477;45.222;5.688;2023-03-23T15:42:38;15.40;99.90
14771;DHT22;7477;45.222;5.688;2023-03-23T15:46:32;15.40;99.90
14771;DHT22;7477;45.222;5.688;2023-03-23T15:49:45;15.40;99.90
14771;DHT22;7477;45.222;5.688;2023-03-23T15:56:43;15.40;99.90
14771;DHT22;7477;45.222;5.688;2023-03-23T16:00:03;15.40;99.90
14771;DHT22;7477;45.222;5.688;2023-03-23T16:03:59;15.40;99.90
14771;DHT22;7477;45.222;5.688;2023-03-23T16:07:10;15.40;99.90
14771;DHT22;7477;45.222;5.688;2023-03-23T16:10:31;15.40;99.90
14771;DHT22;7477;45.222;5.688;2023-03-23T16:13:51;15.40;99.90
14771;DHT22;7477;45.222;5.688;2023-03-23T16:17:13;15.50;99.90
14771;DHT22;7477;45.222;5.688;2023-03-23T16:20:34;15.50;99.90
14771;DHT22;7477;45.222;5.688;2023-03-23T16:23:53;15.50;99.90
14771;DHT22;7477;45.222;5.688;2023-03-23T16:27:13;15.60;99.90
14771;DHT22;7477;45.222;5.688;2023-03-23T16:30:33;15.50;99.90
14771;DHT22;7477;45.222;5.688;2023-03-23T16:33:54;15.50;99.90
14771;DHT22;7477;45.222;5.688;2023-03-23T16:37:14;15.50;99.90
14771;DHT22;7477;45.222;5.688;2023-03-23T16:40:36;15.50;99.90
14771;DHT22;7477;45.222;5.688;2023-03-23T16:43:55;15.40;99.90
14771;DHT22;7477;45.222;5.688;2023-03-23T16:47:14;15.50;99.90
14771;DHT22;7477;45.222;5.688;2023-03-23T16:50:37;15.50;99.90
14771;DHT22;7477;45.222;5.688;2023-03-23T16:53:57;15.50;99.90
14771;DHT22;7477;45.222;5.688;2023-03-23T16:57:16;15.50;99.90
14771;DHT22;7477;45.222;5.688;2023-03-23T17:00:36;15.50;99.90
14771;DHT22;7477;45.222;5.688;2023-03-23T17:03:56;15.40;99.90
14771;DHT22;7477;45.222;5.688;2023-03-23T17:07:15;15.40;99.90
14771;DHT22;7477;45.222;5.688;2023-03-23T17:10:37;15.30;99.90
14771;DHT22;7477;45.222;5.688;2023-03-23T17:13:56;15.30;99.90
14771;DHT22;7477;45.222;5.688;2023-03-23T17:17:15;15.30;99.90
14771;DHT22;7477;45.222;5.688;2023-03-23T17:20:35;15.30;99.90
14771;DHT22;7477;45.222;5.688;2023-03-23T17:23:54;15.20;99.90
14771;DHT22;7477;45.222;5.688;2023-03-23T17:27:15;15.20;99.90
14771;DHT22;7477;45.222;5.688;2023-03-23T17:30:39;15.10;99.90
14771;DHT22;7477;45.222;5.688;2023-03-23T17:33:59;15.10;99.90
14771;DHT22;7477;45.222;5.688;2023-03-23T17:37:19;15.00;99.90
14771;DHT22;7477;45.222;5.688;2023-03-23T17:40:39;15.00;99.90
14771;DHT22;7477;45.222;5.688;2023-03-23T17:43:58;15.00;99.90
14771;DHT22;7477;45.222;5.688;2023-03-23T17:47:18;14.90;99.90
14771;DHT22;7477;45.222;5.688;2023-03-23T17:50:37;14.90;99.90
14771;DHT22;7477;45.222;5.688;2023-03-23T17:53:56;14.70;99.90
14771;DHT22;7477;45.222;5.688;2023-03-23T17:57:16;14.70;99.90
14771;DHT22;7477;45.222;5.688;2023-03-23T18:00:36;14.70;99.90
14771;DHT22;7477;45.222;5.688;2023-03-23T18:03:56;14.70;99.90
14771;DHT22;7477;45.222;5.688;2023-03-23T18:07:15;14.60;99.90
14771;DHT22;7477;45.222;5.688;2023-03-23T18:10:36;14.60;99.90
14771;DHT22;7477;45.222;5.688;2023-03-23T18:13:56;14.50;99.90
14771;DHT22;7477;45.222;5.688;2023-03-23T18:17:16;14.50;99.90
14771;DHT22;7477;45.222;5.688;2023-03-23T18:20:35;14.40;99.90
14771;DHT22;7477;45.222;5.688;2023-03-23T18:23:54;14.30;99.90
14771;DHT22;7477;45.222;5.688;2023-03-23T18:27:13;14.30;99.90
14771;DHT22;7477;45.222;5.688;2023-03-23T18:30:33;14.20;99.90
14771;DHT22;7477;45.222;5.688;2023-03-23T18:33:53;14.20;99.90
14771;DHT22;7477;45.222;5.688;2023-03-23T18:37:13;14.20;99.90
14771;DHT22;7477;45.222;5.688;2023-03-23T18:40:32;14.10;99.90
14771;DHT22;7477;45.222;5.688;2023-03-23T18:43:52;14.10;99.90
14771;DHT22;7477;45.222;5.688;2023-03-23T18:47:10;14.00;99.90
14771;DHT22;7477;45.222;5.688;2023-03-23T18:50:30;14.00;99.90
14771;DHT22;7477;45.222;5.688;2023-03-23T18:53:50;13.90;99.90
14771;DHT22;7477;45.222;5.688;2023-03-23T18:57:09;13.80;99.90
14771;DHT22;7477;45.222;5.688;2023-03-23T19:00:28;13.80;99.90
14771;DHT22;7477;45.222;5.688;2023-03-23T19:03:48;13.80;99.90
14771;DHT22;7477;45.222;5.688;2023-03-23T19:07:08;13.80;99.90
14771;DHT22;7477;45.222;5.688;2023-03-23T19:10:28;13.80;99.90
14771;DHT22;7477;45.222;5.688;2023-03-23T19:13:48;13.70;99.90
14771;DHT22;7477;45.222;5.688;2023-03-23T19:17:07;13.70;99.90
14771;DHT22;7477;45.222;5.688;2023-03-23T19:20:27;13.70;99.90
14771;DHT22;7477;45.222;5.688;2023-03-23T19:23:47;13.70;99.90
14771;DHT22;7477;45.222;5.688;2023-03-23T19:27:07;13.50;99.90
14771;DHT22;7477;45.222;5.688;2023-03-23T19:30:26;13.30;99.90
14771;DHT22;7477;45.222;5.688;2023-03-23T19:33:46;13.20;99.90
14771;DHT22;7477;45.222;5.688;2023-03-23T19:37:05;13.20;99.90
14771;DHT22;7477;45.222;5.688;2023-03-23T19:40:25;13.40;99.90
14771;DHT22;7477;45.222;5.688;2023-03-23T19:43:45;13.50;99.90
14771;DHT22;7477;45.222;5.688;2023-03-23T19:47:04;13.40;99.90
14771;DHT22;7477;45.222;5.688;2023-03-23T19:50:24;13.40;99.90
14771;DHT22;7477;45.222;5.688;2023-03-23T19:53:44;13.40;99.90
14771;DHT22;7477;45.222;5.688;2023-03-23T19:57:04;13.40;99.90
14771;DHT22;7477;45.222;5.688;2023-03-23T20:00:23;13.40;99.90
14771;DHT22;7477;45.222;5.688;2023-03-23T20:03:42;13.30;99.90
14771;DHT22;7477;45.222;5.688;2023-03-23T20:07:03;13.40;99.90
14771;DHT22;7477;45.222;5.688;2023-03-23T20:10:23;13.40;99.90
14771;DHT22;7477;45.222;5.688;2023-03-23T20:13:43;13.40;99.90
14771;DHT22;7477;45.222;5.688;2023-03-23T20:17:03;13.40;99.90
14771;DHT22;7477;45.222;5.688;2023-03-23T20:20:23;13.40;99.90
14771;DHT22;7477;45.222;5.688;2023-03-23T20:23:43;13.40;99.90
14771;DHT22;7477;45.222;5.688;2023-03-23T20:27:02;13.40;99.90
14771;DHT22;7477;45.222;5.688;2023-03-23T20:30:21;13.40;99.90
14771;DHT22;7477;45.222;5.688;2023-03-23T20:33:40;13.50;99.90
14771;DHT22;7477;45.222;5.688;2023-03-23T20:37:00;13.50;99.90
14771;DHT22;7477;45.222;5.688;2023-03-23T20:40:20;13.60;99.90
14771;DHT22;7477;45.222;5.688;2023-03-23T20:43:41;13.50;99.90
14771;DHT22;7477;45.222;5.688;2023-03-23T20:47:01;13.50;99.90
14771;DHT22;7477;45.222;5.688;2023-03-23T20:50:21;13.60;99.90
14771;DHT22;7477;45.222;5.688;2023-03-23T20:53:40;13.60;99.90
14771;DHT22;7477;45.222;5.688;2023-03-23T20:57:00;13.60;99.90
14771;DHT22;7477;45.222;5.688;2023-03-23T21:00:20;13.60;99.90
14771;DHT22;7477;45.222;5.688;2023-03-23T21:03:40;13.70;99.90
14771;DHT22;7477;45.222;5.688;2023-03-23T21:07:00;13.70;99.90
14771;DHT22;7477;45.222;5.688;2023-03-23T21:10:20;13.70;99.90
14771;DHT22;7477;45.222;5.688;2023-03-23T21:13:44;13.70;99.90
14771;DHT22;7477;45.222;5.688;2023-03-23T21:17:05;13.80;99.90
14771;DHT22;7477;45.222;5.688;2023-03-23T21:20:25;13.70;99.90
14771;DHT22;7477;45.222;5.688;2023-03-23T21:23:45;13.70;99.90
14771;DHT22;7477;45.222;5.688;2023-03-23T21:27:05;13.80;99.90
14771;DHT22;7477;45.222;5.688;2023-03-23T21:30:25;13.80;99.90
14771;DHT22;7477;45.222;5.688;2023-03-23T21:33:45;13.80;99.90
14771;DHT22;7477;45.222;5.688;2023-03-23T21:37:04;13.80;99.90
14771;DHT22;7477;45.222;5.688;2023-03-23T21:40:24;13.80;99.90
14771;DHT22;7477;45.222;5.688;2023-03-23T21:43:44;13.80;99.90
14771;DHT22;7477;45.222;5.688;2023-03-23T21:47:08;13.80;99.90
14771;DHT22;7477;45.222;5.688;2023-03-23T21:50:35;13.80;99.90
14771;DHT22;7477;45.222;5.688;2023-03-23T21:53:56;13.80;99.90
14771;DHT22;7477;45.222;5.688;2023-03-23T21:57:16;13.80;99.90
14771;DHT22;7477;45.222;5.688;2023-03-23T22:00:35;13.80;99.90
14771;DHT22;7477;45.222;5.688;2023-03-23T22:03:56;13.80;99.90
14771;DHT22;7477;45.222;5.688;2023-03-23T22:07:16;13.80;99.90
14771;DHT22;7477;45.222;5.688;2023-03-23T22:10:39;13.80;99.90
14771;DHT22;7477;45.222;5.688;2023-03-23T22:13:59;13.80;99.90
14771;DHT22;7477;45.222;5.688;2023-03-23T22:17:19;13.80;99.90
14771;DHT22;7477;45.222;5.688;2023-03-23T22:20:38;13.80;99.90
14771;DHT22;7477;45.222;5.688;2023-03-23T22:23:59;13.80;99.90
14771;DHT22;7477;45.222;5.688;2023-03-23T22:27:18;13.80;99.90
14771;DHT22;7477;45.222;5.688;2023-03-23T22:30:37;13.80;99.90
14771;DHT22;7477;45.222;5.688;2023-03-23T22:33:57;13.70;99.90
14771;DHT22;7477;45.222;5.688;2023-03-23T22:37:16;13.70;99.90
14771;DHT22;7477;45.222;5.688;2023-03-23T22:40:36;13.70;99.90
14771;DHT22;7477;45.222;5.688;2023-03-23T22:43:56;13.70;99.90
14771;DHT22;7477;45.222;5.688;2023-03-23T22:47:16;13.70;99.90
14771;DHT22;7477;45.222;5.688;2023-03-23T22:50:35;13.70;99.90
14771;DHT22;7477;45.222;5.688;2023-03-23T22:53:55;13.70;99.90
14771;DHT22;7477;45.222;5.688;2023-03-23T22:57:14;13.70;99.90
14771;DHT22;7477;45.222;5.688;2023-03-23T23:00:33;13.70;99.90
14771;DHT22;7477;45.222;5.688;2023-03-23T23:03:53;13.70;99.90
14771;DHT22;7477;45.222;5.688;2023-03-23T23:07:13;13.70;99.90